Time;durP1;ratioP1;P1;durP2;ratioP2;P2;SDS_P1;SDS_P2;PMS_P1;PMS_P2;Temp;Humidity;BMP_temperature;BMP_pressure;BME280_temperature;BME280_humidity;BME280_pressure;Samples;Min_cycle;Max_cycle;Signal;HPM_P1;HPM_P2
2021/01/30 05:02:49;;;;;;;19.83;10.82;;;0.90;99.90;;;;;;4933900;29;20218;-67
2021/01/30 05:05:20;;;;;;;12.70;8.93;;;0.90;99.90;;;;;;4935135;29;20578;-68
2021/01/30 05:07:56;;;;;;;16.85;9.90;;;0.90;99.90;;;;;;4936189;29;20277;-68
2021/01/30 05:10:27;;;;;;;15.38;9.20;;;0.90;99.90;;;;;;4930948;29;20270;-68
2021/01/30 05:12:57;;;;;;;15.10;9.60;;;0.90;99.90;;;;;;4898026;29;20268;-68
2021/01/30 05:15:27;;;;;;;12.10;9.40;;;0.80;99.90;;;;;;4904311;29;20346;-70
2021/01/30 05:17:59;;;;;;;15.60;10.45;;;0.80;99.90;;;;;;4917733;29;20249;-69
2021/01/30 05:20:28;;;;;;;14.90;9.60;;;0.80;99.90;;;;;;4916719;29;20306;-68
2021/01/30 05:22:54;;;;;;;18.27;10.07;;;0.80;99.90;;;;;;4916437;29;20666;-68
2021/01/30 05:25:24;;;;;;;18.95;10.32;;;0.80;99.90;;;;;;4916904;29;20332;-67
2021/01/30 05:28:06;;;;;;;14.20;10.02;;;0.80;99.90;;;;;;4916505;29;20226;-68
2021/01/30 05:30:46;;;;;;;14.85;9.88;;;0.80;99.90;;;;;;4916367;29;20728;-69
2021/01/30 05:33:23;;;;;;;18.63;10.45;;;0.80;99.90;;;;;;4916213;29;20233;-68
2021/01/30 05:35:55;;;;;;;20.02;9.93;;;0.80;99.90;;;;;;4904882;29;20646;-67
2021/01/30 05:38:40;;;;;;;18.67;10.65;;;0.80;99.90;;;;;;4915644;29;20723;-68
2021/01/30 05:41:11;;;;;;;18.70;10.88;;;0.80;99.90;;;;;;4916979;29;20234;-67
2021/01/30 05:43:47;;;;;;;17.25;10.18;;;0.80;99.90;;;;;;4917789;29;20199;-68
2021/01/30 05:46:20;;;;;;;17.70;9.50;;;0.80;99.90;;;;;;4919595;29;20214;-69
2021/01/30 05:48:49;;;;;;;16.08;10.30;;;0.80;99.90;;;;;;4915583;29;20213;-69
2021/01/30 05:51:21;;;;;;;18.27;10.23;;;0.80;99.90;;;;;;4916596;29;20231;-69
2021/01/30 05:53:49;;;;;;;16.17;9.75;;;0.80;99.90;;;;;;4916605;29;20686;-69
2021/01/30 05:56:16;;;;;;;18.83;10.35;;;0.80;99.90;;;;;;4917810;29;20214;-70
2021/01/30 05:58:44;;;;;;;15.55;10.65;;;0.80;99.90;;;;;;4924241;29;20230;-69
2021/01/30 06:01:22;;;;;;;18.77;11.50;;;0.80;99.90;;;;;;4932063;29;20246;-67
2021/01/30 06:04:05;;;;;;;16.75;11.00;;;0.90;99.90;;;;;;4928227;29;20198;-68
2021/01/30 06:06:34;;;;;;;18.33;10.40;;;0.90;99.90;;;;;;4921021;29;20210;-68
2021/01/30 06:09:05;;;;;;;19.42;11.05;;;0.90;99.90;;;;;;4922674;29;20705;-68
2021/01/30 06:11:42;;;;;;;19.55;12.25;;;0.90;99.90;;;;;;4916512;29;20230;-69
2021/01/30 06:14:09;;;;;;;20.95;11.60;;;0.90;99.90;;;;;;4915560;29;20206;-69
2021/01/30 06:16:42;;;;;;;21.13;12.35;;;0.90;99.90;;;;;;4915682;29;20210;-68
2021/01/30 06:19:18;;;;;;;21.27;11.50;;;0.90;99.90;;;;;;4916050;29;20645;-68
2021/01/30 06:21:45;;;;;;;17.60;10.10;;;0.90;99.90;;;;;;4914879;29;20218;-68
2021/01/30 06:24:24;;;;;;;20.02;11.48;;;0.90;99.90;;;;;;4916365;29;20217;-68
2021/01/30 06:26:51;;;;;;;18.73;9.93;;;0.90;99.90;;;;;;4915879;29;20905;-71
2021/01/30 06:29:32;;;;;;;17.50;10.88;;;0.90;99.90;;;;;;4916623;29;20222;-68
2021/01/30 06:32:11;;;;;;;19.30;11.75;;;0.90;99.90;;;;;;4915201;29;20226;-68
2021/01/30 06:34:39;;;;;;;20.88;11.20;;;0.90;99.90;;;;;;4916149;29;20202;-68
2021/01/30 06:37:10;;;;;;;19.58;10.77;;;0.90;99.90;;;;;;4915841;29;20211;-68
2021/01/30 06:39:39;;;;;;;24.23;10.73;;;0.90;99.90;;;;;;4916011;29;20560;-69
2021/01/30 06:42:09;;;;;;;21.15;11.68;;;0.90;99.90;;;;;;4915542;29;20306;-70
2021/01/30 06:44:37;;;;;;;15.73;9.75;;;0.90;99.90;;;;;;4916044;29;20563;-69
2021/01/30 06:47:08;;;;;;;16.98;10.40;;;0.90;99.90;;;;;;4915110;29;20202;-67
2021/01/30 06:49:36;;;;;;;19.85;10.73;;;0.90;99.90;;;;;;4907200;29;20210;-71
2021/01/30 06:52:12;;;;;;;19.52;12.38;;;0.90;99.90;;;;;;4913193;29;20222;-70
2021/01/30 06:54:39;;;;;;;17.75;10.50;;;0.90;99.90;;;;;;4902887;29;20515;-71
2021/01/30 06:57:11;;;;;;;13.98;9.40;;;0.90;99.90;;;;;;4914475;29;20214;-69
2021/01/30 06:59:40;;;;;;;18.27;11.57;;;0.90;99.90;;;;;;4901440;29;20211;-67
2021/01/30 07:02:16;;;;;;;17.98;9.30;;;0.90;99.90;;;;;;4914921;29;20230;-67
2021/01/30 07:05:11;;;;;;;20.15;11.10;;;0.90;99.90;;;;;;4915945;29;20203;-68
2021/01/30 07:07:48;;;;;;;22.20;11.25;;;1.00;99.90;;;;;;4910570;29;20727;-68
2021/01/30 07:10:26;;;;;;;21.38;11.75;;;0.90;99.90;;;;;;4915762;29;20678;-68
2021/01/30 07:13:19;;;;;;;18.25;10.38;;;0.90;99.90;;;;;;4914710;29;20675;-69
2021/01/30 07:16:01;;;;;;;15.25;9.38;;;1.00;99.90;;;;;;4912341;29;20213;-67
2021/01/30 07:18:30;;;;;;;17.00;9.63;;;1.00;99.90;;;;;;4915601;29;20233;-67
2021/01/30 07:21:15;;;;;;;16.38;10.90;;;1.00;99.90;;;;;;4916950;29;20234;-67
2021/01/30 07:23:49;;;;;;;18.50;9.95;;;1.10;99.90;;;;;;4919395;29;20221;-66
2021/01/30 07:26:23;;;;;;;17.42;11.30;;;1.10;99.90;;;;;;4917891;29;20209;-69
2021/01/30 07:28:54;;;;;;;13.77;8.98;;;1.10;99.90;;;;;;4918104;29;20226;-68
2021/01/30 07:31:31;;;;;;;18.50;10.30;;;1.10;99.90;;;;;;4918904;29;20222;-67
2021/01/30 07:34:03;;;;;;;15.77;9.27;;;1.10;99.90;;;;;;4919051;29;20210;-67
2021/01/30 07:36:33;;;;;;;24.00;12.57;;;1.10;99.90;;;;;;4918518;29;20222;-68
2021/01/30 07:39:08;;;;;;;15.43;9.43;;;1.10;99.90;;;;;;4918883;29;20226;-66
2021/01/30 07:41:48;;;;;;;20.65;11.38;;;1.10;99.90;;;;;;4918157;29;20737;-67
2021/01/30 07:44:20;;;;;;;14.95;9.63;;;1.10;99.90;;;;;;4918297;29;20539;-69
2021/01/30 07:46:51;;;;;;;22.70;11.85;;;1.10;99.90;;;;;;4901053;29;20620;-66
2021/01/30 07:49:22;;;;;;;16.52;10.95;;;1.20;99.90;;;;;;4911708;29;20301;-69
2021/01/30 07:51:56;;;;;;;21.52;11.20;;;1.20;99.90;;;;;;4917913;29;20227;-69
2021/01/30 07:54:23;;;;;;;21.73;12.75;;;1.20;99.90;;;;;;4917879;29;20201;-69
2021/01/30 07:57:13;;;;;;;18.48;12.10;;;1.30;99.90;;;;;;4917884;29;20215;-69
2021/01/30 07:59:48;;;;;;;23.42;10.70;;;1.30;99.90;;;;;;4916504;29;20206;-66
2021/01/30 08:02:52;;;;;;;17.55;11.38;;;1.30;99.90;;;;;;4914808;29;20233;-66
2021/01/30 08:05:37;;;;;;;23.02;11.23;;;1.40;99.90;;;;;;4917400;29;20282;-71
2021/01/30 08:08:16;;;;;;;20.23;10.50;;;1.40;99.90;;;;;;4917981;29;21039;-67
2021/01/30 08:10:55;;;;;;;16.25;9.45;;;1.30;99.90;;;;;;4917812;29;20706;-68
2021/01/30 08:13:43;;;;;;;15.98;9.75;;;1.20;99.90;;;;;;4915817;29;20750;-66
2021/01/30 08:16:19;;;;;;;20.15;11.25;;;1.20;99.90;;;;;;4916456;29;20273;-67
2021/01/30 08:18:47;;;;;;;19.17;11.32;;;1.20;99.90;;;;;;4915549;29;20234;-67
2021/01/30 08:21:28;;;;;;;20.23;11.30;;;1.20;99.90;;;;;;4915239;29;20347;-68
2021/01/30 08:24:12;;;;;;;18.88;11.43;;;1.20;99.90;;;;;;4915216;29;20826;-68
2021/01/30 08:26:44;;;;;;;16.90;10.25;;;1.20;99.90;;;;;;4905020;29;20220;-68
2021/01/30 08:29:14;;;;;;;16.98;10.70;;;1.30;99.90;;;;;;4924644;29;20210;-68
2021/01/30 08:31:44;;;;;;;19.33;11.60;;;1.30;99.90;;;;;;4921608;29;20230;-69
2021/01/30 08:34:26;;;;;;;17.83;9.93;;;1.20;99.90;;;;;;4918070;29;20214;-69
2021/01/30 08:36:54;;;;;;;17.85;10.95;;;1.20;99.90;;;;;;4918624;29;20207;-68
2021/01/30 08:39:25;;;;;;;22.08;11.82;;;1.30;99.90;;;;;;4919723;29;20273;-67
2021/01/30 08:41:58;;;;;;;20.27;11.65;;;1.30;99.90;;;;;;4918935;29;20239;-67
2021/01/30 08:44:44;;;;;;;14.88;11.10;;;1.30;99.90;;;;;;4913317;29;20278;-69
2021/01/30 08:47:17;;;;;;;20.25;12.35;;;1.30;99.90;;;;;;4923348;29;20207;-69
2021/01/30 08:50:00;;;;;;;19.05;11.70;;;1.20;99.90;;;;;;4915522;29;20198;-69
2021/01/30 08:52:49;;;;;;;21.50;11.65;;;1.30;99.90;;;;;;4917966;29;20270;-70
2021/01/30 08:55:24;;;;;;;23.90;12.07;;;1.20;99.90;;;;;;4913840;29;20710;-68
2021/01/30 08:57:51;;;;;;;17.27;10.82;;;1.10;99.90;;;;;;4908643;29;20590;-68
2021/01/30 09:00:57;;;;;;;20.02;12.57;;;1.10;99.90;;;;;;4921632;29;20214;-68
2021/01/30 09:03:48;;;;;;;24.63;14.57;;;1.20;99.90;;;;;;4909541;29;20210;-69
2021/01/30 09:07:00;;;;;;;25.95;14.10;;;1.20;99.90;;;;;;4915286;29;20242;-67
2021/01/30 09:09:27;;;;;;;21.65;13.15;;;1.20;99.90;;;;;;4863400;29;20629;-68
2021/01/30 09:11:55;;;;;;;25.30;14.90;;;1.30;99.90;;;;;;4915220;29;20238;-68
2021/01/30 09:14:40;;;;;;;20.60;12.68;;;1.30;99.90;;;;;;4916220;29;20207;-66
2021/01/30 09:17:41;;;;;;;24.52;13.63;;;1.30;99.90;;;;;;4917250;29;20651;-68
2021/01/30 09:20:24;;;;;;;33.25;16.15;;;1.30;99.90;;;;;;4898869;29;20652;-68
2021/01/30 09:22:58;;;;;;;26.13;13.13;;;1.30;99.90;;;;;;4904155;29;20263;-66
2021/01/30 09:25:36;;;;;;;21.70;11.75;;;1.30;99.90;;;;;;4911291;29;20211;-67
2021/01/30 09:28:06;;;;;;;22.20;13.27;;;1.30;99.90;;;;;;4920532;29;20210;-70
2021/01/30 09:30:37;;;;;;;23.88;13.15;;;1.30;99.90;;;;;;4922466;29;20246;-70
2021/01/30 09:33:11;;;;;;;19.23;12.77;;;1.30;99.90;;;;;;4916116;29;20255;-69
2021/01/30 09:35:39;;;;;;;23.15;12.73;;;1.30;99.90;;;;;;4913891;29;20207;-71
2021/01/30 09:38:26;;;;;;;20.35;11.23;;;1.30;99.90;;;;;;4909163;29;20281;-70
2021/01/30 09:41:11;;;;;;;23.02;13.45;;;1.40;99.90;;;;;;4911355;29;20222;-70
2021/01/30 09:43:38;;;;;;;19.23;11.90;;;1.40;99.90;;;;;;4914919;29;20198;-69
2021/01/30 09:46:07;;;;;;;23.02;12.77;;;1.40;99.90;;;;;;4917127;29;20294;-69
2021/01/30 09:48:36;;;;;;;21.35;13.00;;;1.40;99.90;;;;;;4916895;29;20202;-70
2021/01/30 09:51:02;;;;;;;23.02;13.10;;;1.40;99.90;;;;;;4915379;29;20226;-69
2021/01/30 09:53:32;;;;;;;18.35;12.90;;;1.50;99.90;;;;;;4910823;29;20301;-70
2021/01/30 09:56:07;;;;;;;18.30;12.15;;;1.50;99.90;;;;;;4916265;29;20215;-69
2021/01/30 09:58:34;;;;;;;19.67;13.13;;;1.60;99.90;;;;;;4903792;29;20340;-69
2021/01/30 10:01:07;;;;;;;22.30;14.15;;;1.60;99.90;;;;;;4915831;29;20715;-69
2021/01/30 10:03:40;;;;;;;16.65;12.05;;;1.70;99.90;;;;;;4915447;29;20206;-70
2021/01/30 10:06:12;;;;;;;16.52;10.93;;;1.70;99.90;;;;;;4916425;29;20745;-69
2021/01/30 10:08:38;;;;;;;19.15;11.32;;;1.70;99.90;;;;;;4902414;29;20205;-68
2021/01/30 10:11:06;;;;;;;22.13;11.80;;;1.80;99.90;;;;;;4909081;29;20224;-69
2021/01/30 10:13:34;;;;;;;21.52;12.07;;;1.80;99.90;;;;;;4903379;29;20205;-70
2021/01/30 10:16:03;;;;;;;18.05;12.85;;;1.90;99.90;;;;;;4916176;29;20206;-70
2021/01/30 10:18:32;;;;;;;15.15;10.15;;;1.90;99.90;;;;;;4915129;29;20703;-69
2021/01/30 10:21:01;;;;;;;16.13;11.57;;;2.00;99.90;;;;;;4915962;29;20226;-69
2021/01/30 10:23:30;;;;;;;17.35;12.10;;;2.00;99.90;;;;;;4913835;29;20608;-68
2021/01/30 10:26:09;;;;;;;18.75;12.15;;;2.10;99.90;;;;;;4917026;29;20608;-70
2021/01/30 10:28:44;;;;;;;16.08;11.40;;;2.20;99.90;;;;;;4914885;29;20228;-70
2021/01/30 10:31:10;;;;;;;17.27;11.25;;;2.20;99.90;;;;;;4917130;29;20226;-70
2021/01/30 10:33:44;;;;;;;19.38;11.55;;;2.20;99.90;;;;;;4915628;29;20238;-70
2021/01/30 10:36:12;;;;;;;17.35;11.65;;;2.10;99.90;;;;;;4915709;29;20214;-70
2021/01/30 10:38:38;;;;;;;19.60;11.85;;;2.20;99.90;;;;;;4912999;29;20226;-71
2021/01/30 10:41:06;;;;;;;19.85;12.65;;;2.10;99.90;;;;;;4914637;29;20684;-71
2021/01/30 10:43:36;;;;;;;19.02;12.13;;;2.10;99.90;;;;;;4914151;29;20278;-73
2021/01/30 10:46:06;;;;;;;21.77;11.95;;;2.10;99.90;;;;;;4917231;29;20210;-72
2021/01/30 10:48:37;;;;;;;21.13;11.95;;;2.10;99.90;;;;;;4915743;29;20344;-70
2021/01/30 10:51:06;;;;;;;18.60;12.82;;;2.10;99.90;;;;;;4915644;29;20594;-71
2021/01/30 10:53:35;;;;;;;16.55;11.10;;;2.20;99.90;;;;;;4914638;29;20262;-70
2021/01/30 10:56:14;;;;;;;18.60;12.15;;;2.30;99.90;;;;;;4918520;29;20682;-70
2021/01/30 10:58:40;;;;;;;19.25;11.25;;;2.30;99.90;;;;;;4915539;29;20229;-68
2021/01/30 11:01:09;;;;;;;16.30;11.07;;;2.30;99.90;;;;;;4917869;29;20241;-70
2021/01/30 11:03:44;;;;;;;17.38;10.48;;;2.30;99.90;;;;;;4912408;29;20747;-71
2021/01/30 11:06:29;;;;;;;15.43;10.70;;;2.40;99.90;;;;;;4919517;29;20198;-70
2021/01/30 11:08:56;;;;;;;15.50;10.77;;;2.40;99.90;;;;;;4918784;29;20746;-69
2021/01/30 11:11:28;;;;;;;17.63;11.63;;;2.50;99.90;;;;;;4919454;29;20274;-68
2021/01/30 11:13:54;;;;;;;18.35;11.93;;;2.40;99.90;;;;;;4918291;29;20206;-69
2021/01/30 11:16:29;;;;;;;17.35;11.38;;;2.40;99.90;;;;;;4919300;29;20207;-70
2021/01/30 11:18:55;;;;;;;17.75;11.15;;;2.40;99.90;;;;;;4919675;29;20281;-69
2021/01/30 11:21:32;;;;;;;16.52;9.82;;;2.30;99.90;;;;;;4918690;29;20321;-70
2021/01/30 11:23:59;;;;;;;16.50;12.10;;;2.10;99.90;;;;;;4909100;29;20211;-69
2021/01/30 11:26:40;;;;;;;19.20;11.70;;;2.00;99.90;;;;;;4900259;29;20207;-69
2021/01/30 11:29:32;;;;;;;19.40;11.80;;;2.00;99.90;;;;;;4916116;29;20258;-69
2021/01/30 11:31:59;;;;;;;17.50;11.00;;;1.90;99.90;;;;;;4917212;29;20222;-68
2021/01/30 11:34:26;;;;;;;18.08;11.57;;;1.80;99.90;;;;;;4918833;29;20207;-67
2021/01/30 11:36:54;;;;;;;15.90;10.70;;;1.70;99.90;;;;;;4919215;29;20525;-67
2021/01/30 11:39:27;;;;;;;20.92;10.82;;;1.70;99.90;;;;;;4913982;29;20226;-68
2021/01/30 11:41:53;;;;;;;19.30;12.30;;;1.70;99.90;;;;;;4909102;29;20234;-69
2021/01/30 11:44:19;;;;;;;25.02;15.32;;;1.80;99.90;;;;;;4913658;29;20293;-69
2021/01/30 11:46:45;;;;;;;17.33;12.18;;;1.90;99.90;;;;;;4914137;29;20239;-68
2021/01/30 11:49:11;;;;;;;18.92;13.23;;;1.90;99.90;;;;;;4918582;29;20206;-68
2021/01/30 11:51:37;;;;;;;17.27;10.88;;;2.00;99.90;;;;;;4914512;29;20219;-66
2021/01/30 11:54:05;;;;;;;16.58;10.27;;;2.00;99.90;;;;;;4911861;29;20225;-67
2021/01/30 11:56:31;;;;;;;14.15;9.75;;;1.90;99.90;;;;;;4931522;29;20463;-67
2021/01/30 11:58:57;;;;;;;13.50;9.65;;;2.00;99.90;;;;;;4933678;29;20227;-67
2021/01/30 12:01:24;;;;;;;10.45;8.52;;;2.00;99.90;;;;;;4932176;29;20295;-66
2021/01/30 12:03:50;;;;;;;13.25;8.40;;;2.00;99.90;;;;;;4927414;29;20211;-66
2021/01/30 12:06:16;;;;;;;17.40;9.23;;;2.00;99.90;;;;;;4920462;29;20589;-68
2021/01/30 12:08:43;;;;;;;11.93;8.15;;;2.00;99.90;;;;;;4921743;29;20211;-68
2021/01/30 12:11:11;;;;;;;13.50;8.75;;;2.00;99.90;;;;;;4924122;29;20235;-68
2021/01/30 12:13:38;;;;;;;11.40;8.75;;;1.90;99.90;;;;;;4924736;29;20515;-68
2021/01/30 12:16:05;;;;;;;9.65;7.93;;;1.90;99.90;;;;;;4932683;29;20217;-68
2021/01/30 12:18:32;;;;;;;10.32;7.53;;;1.80;99.90;;;;;;4931980;29;20234;-67
2021/01/30 12:20:58;;;;;;;11.43;7.13;;;1.80;99.90;;;;;;4933009;29;20230;-68
2021/01/30 12:23:24;;;;;;;10.13;7.03;;;1.70;99.90;;;;;;4931846;29;20210;-69
2021/01/30 12:25:50;;;;;;;8.77;6.30;;;1.50;99.90;;;;;;4933470;29;20211;-70
2021/01/30 12:28:22;;;;;;;10.13;7.55;;;1.40;99.90;;;;;;4931423;29;20287;-67
2021/01/30 12:30:48;;;;;;;10.40;7.53;;;1.30;99.90;;;;;;4931913;29;20226;-67
2021/01/30 12:33:14;;;;;;;13.50;7.65;;;1.30;99.90;;;;;;4933948;29;20231;-67
2021/01/30 12:35:40;;;;;;;10.57;7.60;;;1.40;99.90;;;;;;4934082;29;20202;-68
2021/01/30 12:38:07;;;;;;;10.35;8.10;;;1.40;99.90;;;;;;4931692;29;20227;-67
2021/01/30 12:40:35;;;;;;;11.77;8.13;;;1.40;99.90;;;;;;4928649;29;20238;-68
2021/01/30 12:43:02;;;;;;;12.45;8.07;;;1.60;99.90;;;;;;4924566;29;20664;-68
2021/01/30 12:45:29;;;;;;;12.13;8.20;;;1.80;99.90;;;;;;4924737;29;20662;-68
2021/01/30 12:47:55;;;;;;;7.70;6.25;;;2.00;99.90;;;;;;4919201;29;20214;-70
2021/01/30 12:50:23;;;;;;;13.70;8.68;;;2.30;99.90;;;;;;4917622;29;20215;-67
2021/01/30 12:52:50;;;;;;;11.10;8.82;;;2.60;99.90;;;;;;4917034;29;20584;-66
2021/01/30 12:55:16;;;;;;;8.60;6.68;;;3.00;99.90;;;;;;4917605;29;20211;-66
2021/01/30 12:57:42;;;;;;;8.75;7.10;;;3.10;99.90;;;;;;4917234;29;20700;-68
2021/01/30 13:00:11;;;;;;;6.80;5.57;;;3.10;99.90;;;;;;4918661;29;20210;-67
2021/01/30 13:02:38;;;;;;;6.95;5.97;;;3.10;99.90;;;;;;4917931;29;20234;-67
2021/01/30 13:05:06;;;;;;;10.25;8.00;;;2.90;99.90;;;;;;4917914;29;20215;-68
2021/01/30 13:07:32;;;;;;;8.88;7.47;;;2.80;99.90;;;;;;4917667;29;20210;-68
2021/01/30 13:09:59;;;;;;;10.20;7.65;;;2.70;99.90;;;;;;4917459;29;20213;-67
2021/01/30 13:12:25;;;;;;;13.77;8.52;;;2.40;99.90;;;;;;4916729;29;20230;-68
2021/01/30 13:14:51;;;;;;;11.90;7.88;;;2.20;99.90;;;;;;4917759;29;20215;-69
2021/01/30 13:17:17;;;;;;;11.27;7.95;;;1.90;99.90;;;;;;4917159;29;20278;-66
2021/01/30 13:19:44;;;;;;;12.77;8.68;;;1.80;99.90;;;;;;4916364;29;20278;-67
2021/01/30 13:22:11;;;;;;;10.30;6.65;;;1.70;99.90;;;;;;4916495;29;20226;-65
2021/01/30 13:24:37;;;;;;;12.10;8.65;;;1.70;99.90;;;;;;4917084;29;20218;-67
2021/01/30 13:27:04;;;;;;;15.13;10.27;;;1.60;99.90;;;;;;4916613;29;20215;-67
2021/01/30 13:29:32;;;;;;;11.27;8.30;;;1.60;99.90;;;;;;4916333;29;20199;-69
2021/01/30 13:32:00;;;;;;;11.95;10.25;;;1.50;99.90;;;;;;4916159;29;20599;-69
2021/01/30 13:34:26;;;;;;;14.70;10.25;;;1.50;99.90;;;;;;4917027;29;20210;-69
2021/01/30 13:36:55;;;;;;;17.42;11.07;;;1.40;99.90;;;;;;4916911;29;20206;-69
2021/01/30 13:39:21;;;;;;;17.58;11.63;;;1.40;99.90;;;;;;4916957;29;20556;-69
2021/01/30 13:41:48;;;;;;;21.10;12.00;;;1.30;99.90;;;;;;4915918;29;20614;-68
2021/01/30 13:44:15;;;;;;;20.23;13.20;;;1.30;99.90;;;;;;4916935;29;20206;-68
2021/01/30 13:46:41;;;;;;;19.20;12.95;;;1.20;99.90;;;;;;4917288;29;20613;-67
2021/01/30 13:49:08;;;;;;;25.05;15.60;;;1.20;99.90;;;;;;4917114;29;20215;-68
2021/01/30 13:51:34;;;;;;;30.15;20.13;;;1.20;99.90;;;;;;4916458;29;20234;-68
2021/01/30 13:54:01;;;;;;;31.95;18.85;;;1.30;99.90;;;;;;4916303;29;20207;-69
2021/01/30 13:56:28;;;;;;;26.02;16.02;;;1.30;99.90;;;;;;4916469;29;20225;-69
2021/01/30 13:58:54;;;;;;;18.48;11.63;;;1.30;99.90;;;;;;4915814;29;20231;-69
2021/01/30 14:01:20;;;;;;;14.38;10.50;;;1.30;99.90;;;;;;4916096;29;20241;-68
2021/01/30 14:03:47;;;;;;;15.65;9.15;;;1.40;99.90;;;;;;4916632;29;20211;-69
2021/01/30 14:06:13;;;;;;;10.85;7.82;;;1.50;99.90;;;;;;4917246;29;20492;-67
2021/01/30 14:08:39;;;;;;;9.13;7.65;;;1.50;99.90;;;;;;4916704;29;20217;-68
2021/01/30 14:11:07;;;;;;;9.73;6.85;;;1.60;99.90;;;;;;4915872;29;20239;-69
2021/01/30 14:13:33;;;;;;;10.05;7.30;;;1.60;99.90;;;;;;4917675;29;20221;-68
2021/01/30 14:15:59;;;;;;;8.55;7.25;;;1.60;99.90;;;;;;4916695;29;20253;-68
2021/01/30 14:18:25;;;;;;;12.00;7.43;;;1.60;99.90;;;;;;4912284;29;20230;-68
2021/01/30 14:20:51;;;;;;;7.43;5.05;;;1.60;99.90;;;;;;4911967;29;20619;-68
2021/01/30 14:23:18;;;;;;;5.25;4.85;;;1.60;99.90;;;;;;4913851;29;20202;-68
2021/01/30 14:25:44;;;;;;;5.80;5.20;;;1.60;99.90;;;;;;4916402;29;20238;-69
2021/01/30 14:28:11;;;;;;;6.20;5.60;;;1.60;99.90;;;;;;4913506;29;20214;-68
2021/01/30 14:30:37;;;;;;;9.52;6.40;;;1.50;99.90;;;;;;4913365;29;20227;-67
2021/01/30 14:33:05;;;;;;;7.97;5.65;;;1.50;99.90;;;;;;4913896;29;22017;-70
2021/01/30 14:35:32;;;;;;;7.28;6.10;;;1.50;99.90;;;;;;4909564;29;20222;-68
2021/01/30 14:37:58;;;;;;;9.10;6.82;;;1.50;99.90;;;;;;4912613;29;20257;-67
2021/01/30 14:40:28;;;;;;;10.05;7.00;;;1.50;99.90;;;;;;4910713;29;20687;-68
2021/01/30 14:42:54;;;;;;;7.90;6.40;;;1.50;99.90;;;;;;4910923;29;20206;-68
2021/01/30 14:45:21;;;;;;;6.22;5.70;;;1.50;99.90;;;;;;4914169;29;20222;-67
2021/01/30 14:47:48;;;;;;;6.75;5.97;;;1.50;99.90;;;;;;4914668;29;20210;-68
2021/01/30 14:50:15;;;;;;;7.50;6.30;;;1.50;99.90;;;;;;4915712;29;20209;-68
2021/01/30 14:52:41;;;;;;;8.82;6.78;;;1.40;99.90;;;;;;4914148;29;20217;-68
2021/01/30 14:55:09;;;;;;;7.63;6.35;;;1.40;99.90;;;;;;4916936;29;20655;-69
2021/01/30 14:57:35;;;;;;;7.72;6.65;;;1.30;99.90;;;;;;4911519;29;20203;-68
2021/01/30 15:00:01;;;;;;;8.52;6.22;;;1.30;99.90;;;;;;4906022;29;20567;-69
2021/01/30 15:02:28;;;;;;;7.07;6.50;;;1.30;99.90;;;;;;4916064;29;20237;-68
2021/01/30 15:04:54;;;;;;;11.38;7.45;;;1.30;99.90;;;;;;4917379;29;20343;-68
2021/01/30 15:07:22;;;;;;;9.18;6.70;;;1.20;99.90;;;;;;4917958;29;20233;-67
2021/01/30 15:09:48;;;;;;;8.70;6.43;;;1.20;99.90;;;;;;4918230;29;20612;-67
2021/01/30 15:12:14;;;;;;;7.70;6.55;;;1.20;99.90;;;;;;4916805;29;20226;-67
2021/01/30 15:14:40;;;;;;;9.75;8.75;;;1.20;99.90;;;;;;4918149;29;20282;-68
2021/01/30 15:17:06;;;;;;;8.82;7.35;;;1.20;99.90;;;;;;4916473;29;20218;-69
2021/01/30 15:19:34;;;;;;;9.15;6.63;;;1.10;99.90;;;;;;4916296;29;20249;-67
2021/01/30 15:22:00;;;;;;;10.52;7.63;;;1.10;99.90;;;;;;4916172;29;20223;-68
2021/01/30 15:24:26;;;;;;;12.30;7.70;;;1.10;99.90;;;;;;4916917;29;20231;-68
2021/01/30 15:26:52;;;;;;;11.45;8.15;;;1.00;99.90;;;;;;4915442;29;20218;-66
2021/01/30 15:29:18;;;;;;;10.90;8.73;;;1.00;99.90;;;;;;4914762;29;20207;-67
2021/01/30 15:31:44;;;;;;;12.43;9.02;;;0.90;99.90;;;;;;4914834;29;20325;-66
2021/01/30 15:34:11;;;;;;;15.73;11.38;;;0.90;99.90;;;;;;4915545;29;20207;-67
2021/01/30 15:36:40;;;;;;;13.40;10.23;;;0.80;99.90;;;;;;4909030;29;20295;-67
2021/01/30 15:39:06;;;;;;;10.93;7.72;;;0.80;99.90;;;;;;4899151;29;20235;-67
2021/01/30 15:41:32;;;;;;;15.00;10.77;;;0.80;99.90;;;;;;4916075;29;20279;-67
2021/01/30 15:43:58;;;;;;;11.90;9.43;;;0.70;99.90;;;;;;4917648;29;20209;-67
2021/01/30 15:46:25;;;;;;;14.85;11.10;;;0.70;99.90;;;;;;4918703;29;20222;-67
2021/01/30 15:48:51;;;;;;;15.13;10.00;;;0.60;99.90;;;;;;4897835;29;20254;-67
2021/01/30 15:51:17;;;;;;;12.23;8.95;;;0.60;99.90;;;;;;4913611;29;20305;-66
2021/01/30 15:53:44;;;;;;;15.90;9.90;;;0.60;99.90;;;;;;4914410;29;20227;-65
2021/01/30 15:56:10;;;;;;;19.15;12.63;;;0.50;99.90;;;;;;4914648;29;20238;-66
2021/01/30 15:58:36;;;;;;;14.20;10.25;;;0.50;99.90;;;;;;4914494;29;20691;-67
2021/01/30 16:01:03;;;;;;;14.38;10.02;;;0.50;99.90;;;;;;4914004;29;20301;-67
2021/01/30 16:03:29;;;;;;;15.35;12.35;;;0.40;99.90;;;;;;4914691;29;20222;-67
2021/01/30 16:05:55;;;;;;;16.88;11.40;;;0.40;99.90;;;;;;4915425;29;20233;-67
2021/01/30 16:08:21;;;;;;;16.35;11.65;;;0.40;99.90;;;;;;4913475;29;20952;-67
2021/01/30 16:10:49;;;;;;;19.23;12.45;;;0.30;99.90;;;;;;4913584;29;20257;-68
2021/01/30 16:13:15;;;;;;;22.92;15.10;;;0.30;99.90;;;;;;4913271;29;20226;-68
2021/01/30 16:15:41;;;;;;;23.58;15.38;;;0.30;99.90;;;;;;4912500;29;20552;-68
2021/01/30 16:18:07;;;;;;;18.55;13.27;;;0.30;99.90;;;;;;4913951;29;21028;-68
2021/01/30 16:20:34;;;;;;;21.05;14.90;;;0.30;99.90;;;;;;4908806;29;20918;-70
2021/01/30 16:23:01;;;;;;;17.48;14.10;;;0.20;99.90;;;;;;4908581;29;20212;-69
2021/01/30 16:25:29;;;;;;;19.83;14.75;;;0.20;99.90;;;;;;4915057;29;20214;-69
2021/01/30 16:27:56;;;;;;;19.58;15.32;;;0.10;99.90;;;;;;4913892;29;20245;-67
2021/01/30 16:30:23;;;;;;;24.30;16.60;;;0.00;99.90;;;;;;4914458;29;20219;-68
2021/01/30 16:32:51;;;;;;;23.92;16.45;;;0.00;99.90;;;;;;4913883;29;20588;-68
2021/01/30 16:35:19;;;;;;;20.63;16.13;;;0.00;99.90;;;;;;4912800;29;20277;-68
2021/01/30 16:37:45;;;;;;;25.73;16.20;;;0.00;99.90;;;;;;4911233;29;20219;-69
2021/01/30 16:40:16;;;;;;;23.85;15.60;;;-0.10;99.90;;;;;;4913776;29;20726;-70
2021/01/30 16:42:42;;;;;;;25.83;17.95;;;-0.10;99.90;;;;;;4913979;29;20290;-69
2021/01/30 16:45:12;;;;;;;28.92;17.15;;;-0.10;99.90;;;;;;4914114;29;20207;-68
2021/01/30 16:47:38;;;;;;;25.98;16.45;;;-0.20;99.90;;;;;;4913609;29;20512;-68
2021/01/30 16:50:05;;;;;;;19.75;15.18;;;-0.10;99.90;;;;;;4913119;29;20687;-69
2021/01/30 16:52:31;;;;;;;24.67;15.90;;;-0.20;99.90;;;;;;4913588;29;20596;-69
2021/01/30 16:54:58;;;;;;;28.67;18.15;;;-0.20;99.90;;;;;;4913262;29;20211;-68
2021/01/30 16:57:24;;;;;;;27.63;19.55;;;-0.30;99.90;;;;;;4914317;29;20590;-68
2021/01/30 16:59:50;;;;;;;29.50;20.13;;;-0.30;99.90;;;;;;4913394;29;20330;-68
2021/01/30 17:02:20;;;;;;;33.75;21.90;;;-0.30;99.90;;;;;;4910282;29;20248;-67
2021/01/30 17:04:46;;;;;;;43.97;27.30;;;-0.40;99.90;;;;;;4909970;29;20527;-67
2021/01/30 17:07:12;;;;;;;36.83;20.52;;;-0.40;99.90;;;;;;4916570;29;20215;-67
2021/01/30 17:09:38;;;;;;;35.03;20.35;;;-0.40;99.90;;;;;;4916074;29;20270;-67
2021/01/30 17:12:05;;;;;;;35.53;25.05;;;-0.50;99.90;;;;;;4914746;29;20527;-68
2021/01/30 17:14:31;;;;;;;34.95;27.75;;;-0.50;99.90;;;;;;4915819;29;20274;-68
2021/01/30 17:16:58;;;;;;;35.65;24.90;;;-0.60;99.90;;;;;;4915761;29;20667;-69
2021/01/30 17:19:25;;;;;;;34.00;22.83;;;-0.60;99.90;;;;;;4915816;29;20231;-68
2021/01/30 17:21:54;;;;;;;35.05;24.15;;;-0.60;99.90;;;;;;4916281;29;20293;-68
2021/01/30 17:24:20;;;;;;;34.05;22.25;;;-0.70;99.90;;;;;;4916281;29;20393;-68
2021/01/30 17:26:46;;;;;;;33.38;22.05;;;-0.70;99.90;;;;;;4912117;29;20263;-67
2021/01/30 17:29:12;;;;;;;38.05;24.63;;;-0.70;99.90;;;;;;4911451;29;20211;-67
2021/01/30 17:31:39;;;;;;;37.53;25.10;;;-0.70;99.90;;;;;;4912562;29;20609;-68
2021/01/30 17:34:05;;;;;;;36.45;24.60;;;-0.80;99.90;;;;;;4907642;29;20211;-68
2021/01/30 17:36:32;;;;;;;33.03;23.85;;;-0.80;99.90;;;;;;4914887;29;20682;-68
2021/01/30 17:38:58;;;;;;;41.83;23.75;;;-0.90;99.90;;;;;;4917443;29;20692;-68
2021/01/30 17:41:24;;;;;;;37.33;23.83;;;-0.90;99.90;;;;;;4915603;29;20245;-68
2021/01/30 17:43:50;;;;;;;34.53;22.42;;;-0.90;99.90;;;;;;4914958;29;20206;-68
2021/01/30 17:46:18;;;;;;;40.55;28.25;;;-0.90;99.90;;;;;;4916014;29;20221;-68
2021/01/30 17:48:44;;;;;;;54.92;32.63;;;-1.00;99.90;;;;;;4910358;29;20305;-68
2021/01/30 17:51:11;;;;;;;48.58;27.10;;;-1.00;99.90;;;;;;4910850;29;20231;-68
2021/01/30 17:53:37;;;;;;;41.45;25.10;;;-1.00;99.90;;;;;;4914889;29;20207;-68
2021/01/30 17:56:04;;;;;;;42.58;27.23;;;-1.00;99.90;;;;;;4916395;29;20587;-68
2021/01/30 17:58:30;;;;;;;46.10;27.23;;;-1.10;99.90;;;;;;4913753;29;20637;-68